Windermere, Canada
Current Conditions -  °F | °C
As of 8:00 PM on Saturday 22 Nov 2014 (Local Time) from CYXC Reporting Station
Few Clouds Few Clouds  
Wind Chill: 28°   Ceiling: Unl
Heat Index: 34°   Visibility: 25mi
Dew Point: 23°   Wind: 7mph
Humidity: 65%   Direction: 260°W
Pressure: 29.66"   Gusts: NA
Location:  50.47°N, 115.97°W
Report Text: CYXC 230300Z 26006KT 25SM FEW035 FEW070 01/M05 A2966 RMK SC1AC1 SLP074
Loading
Personal Weather Stations






























Interactive Weather Map New forecast layout! Learn more

10-Day Weather Forecast

Advertisements
Track Severe Weather on mobile